createdAt,value
2023-02-09T00:01:14.895Z,19.60
2023-02-09T00:03:42.356Z,19.76
2023-02-09T00:06:11.715Z,19.75
2023-02-09T00:08:38.339Z,19.75
2023-02-09T00:11:18.005Z,19.60
2023-02-09T00:13:44.663Z,19.39
2023-02-09T00:16:11.699Z,19.58
2023-02-09T00:18:41.455Z,19.49
2023-02-09T00:21:11.155Z,19.71
2023-02-09T00:23:40.696Z,19.65
2023-02-09T00:28:29.964Z,19.67
2023-02-09T00:30:56.869Z,19.69
2023-02-09T00:33:23.451Z,19.48
2023-02-09T00:35:50.111Z,19.68
2023-02-09T00:38:16.720Z,19.39
2023-02-09T00:40:44.017Z,19.67
2023-02-09T00:43:11.955Z,19.67
2023-02-09T00:45:38.608Z,19.49
2023-02-09T00:48:05.426Z,19.56
2023-02-09T00:50:32.165Z,19.66
2023-02-09T00:52:58.783Z,19.59
2023-02-09T00:55:25.566Z,19.65
2023-02-09T00:57:52.128Z,19.64
2023-02-09T01:00:20.418Z,19.48
2023-02-09T01:02:47.619Z,19.63
2023-02-09T01:05:14.334Z,19.30
2023-02-09T01:07:40.948Z,19.32
2023-02-09T01:10:08.436Z,19.50
2023-02-09T01:12:35.210Z,19.46
2023-02-09T01:15:04.071Z,19.61
2023-02-09T01:17:30.598Z,19.60
2023-02-09T01:19:57.327Z,19.48
2023-02-09T01:22:23.901Z,19.53
2023-02-09T01:24:50.794Z,19.58
2023-02-09T01:27:18.345Z,19.35
2023-02-09T01:29:45.483Z,19.42
2023-02-09T01:32:12.206Z,19.57
2023-02-09T01:34:39.470Z,19.57
2023-02-09T01:39:26.874Z,19.42
2023-02-09T01:41:54.102Z,19.43
2023-02-09T01:44:20.570Z,19.54
2023-02-09T01:46:47.506Z,19.37
2023-02-09T01:49:23.498Z,19.49
2023-02-09T01:51:55.834Z,19.52
2023-02-09T01:54:29.258Z,19.51
2023-02-09T01:57:02.360Z,19.50
2023-02-09T01:59:29.989Z,19.50
2023-02-09T02:01:56.631Z,19.06
2023-02-09T02:04:23.361Z,19.48
2023-02-09T02:06:54.618Z,19.39
2023-02-09T02:09:21.547Z,19.46
2023-02-09T02:11:48.876Z,19.38
2023-02-09T02:14:30.664Z,19.43
2023-02-09T02:17:12.165Z,19.45
2023-02-09T02:19:57.184Z,19.43
2023-02-09T02:22:42.791Z,19.41
2023-02-09T02:25:53.711Z,19.41
2023-02-09T02:28:26.227Z,19.34
2023-02-09T02:31:03.818Z,19.22
2023-02-09T02:33:54.700Z,19.22
2023-02-09T02:36:31.043Z,19.37
2023-02-09T02:39:11.826Z,19.31
2023-02-09T02:42:13.510Z,19.31
2023-02-09T02:44:43.465Z,19.24
2023-02-09T02:47:17.195Z,19.27
2023-02-09T02:49:57.857Z,19.32
2023-02-09T02:52:24.640Z,19.28
2023-02-09T02:55:00.700Z,19.07
2023-02-09T02:57:32.570Z,19.25
2023-02-09T03:00:12.065Z,19.27
2023-02-09T03:02:49.090Z,19.23
2023-02-09T03:05:17.888Z,19.28
2023-02-09T03:07:44.690Z,19.23
2023-02-09T03:10:27.398Z,19.25
2023-02-09T03:13:01.557Z,19.11
2023-02-09T03:15:55.815Z,19.24
2023-02-09T03:18:40.734Z,19.22
2023-02-09T03:21:41.562Z,19.20
2023-02-09T03:24:29.259Z,19.19
2023-02-09T03:27:02.600Z,19.18
2023-02-09T03:29:31.434Z,19.17
2023-02-09T03:31:58.704Z,19.17
2023-02-09T03:34:27.280Z,19.07
2023-02-09T03:36:56.112Z,19.10
2023-02-09T03:39:23.247Z,19.01
2023-02-09T03:41:49.806Z,19.07
2023-02-09T03:44:28.669Z,19.13
2023-02-09T03:46:58.399Z,18.66
2023-02-09T03:49:27.782Z,18.84
2023-02-09T03:51:54.894Z,19.10
2023-02-09T03:54:21.693Z,19.06
2023-02-09T03:56:48.526Z,18.88
2023-02-09T03:59:15.056Z,19.06
2023-02-09T04:01:41.727Z,19.06
2023-02-09T04:04:08.697Z,18.83
2023-02-09T04:06:35.986Z,19.04
2023-02-09T04:09:03.963Z,18.91
2023-02-09T04:11:31.051Z,19.03
2023-02-09T04:13:57.812Z,18.66
2023-02-09T04:16:24.825Z,18.61
2023-02-09T04:18:52.373Z,19.00
2023-02-09T04:21:19.088Z,18.99
2023-02-09T04:23:45.787Z,18.76
2023-02-09T04:26:12.935Z,18.87
2023-02-09T04:28:39.465Z,18.89
2023-02-09T04:31:06.144Z,18.80
2023-02-09T04:33:32.934Z,18.77
2023-02-09T04:35:59.832Z,18.92
2023-02-09T04:38:26.646Z,18.92
2023-02-09T04:40:55.074Z,18.90
2023-02-09T04:43:21.805Z,18.90
2023-02-09T04:45:48.578Z,18.78
2023-02-09T04:48:17.784Z,18.75
2023-02-09T04:50:44.950Z,18.75
2023-02-09T04:53:12.538Z,18.81
2023-02-09T04:55:43.759Z,18.85
2023-02-09T04:58:34.594Z,18.82
2023-02-09T05:01:02.656Z,18.78
2023-02-09T05:03:29.590Z,18.67
2023-02-09T05:06:05.982Z,18.79
2023-02-09T05:08:32.996Z,18.65
2023-02-09T05:10:59.951Z,18.65
2023-02-09T05:13:27.156Z,18.77
2023-02-09T05:15:53.860Z,18.72
2023-02-09T05:18:21.075Z,18.70
2023-02-09T05:20:48.872Z,18.73
2023-02-09T05:23:16.578Z,18.72
2023-02-09T05:25:43.146Z,18.53
2023-02-09T05:28:09.986Z,18.60
2023-02-09T05:30:37.538Z,18.64
2023-02-09T05:33:04.595Z,18.70
2023-02-09T05:35:31.370Z,18.69
2023-02-09T05:37:58.032Z,18.58
2023-02-09T05:40:24.793Z,18.27
2023-02-09T05:42:51.492Z,18.31
2023-02-09T05:45:18.525Z,18.68
2023-02-09T05:47:45.706Z,18.41
2023-02-09T05:50:12.281Z,18.61
2023-02-09T05:52:38.854Z,18.61
2023-02-09T05:55:05.659Z,18.67
2023-02-09T05:57:32.304Z,18.41
2023-02-09T05:59:58.826Z,18.33
2023-02-09T06:02:25.508Z,18.62
2023-02-09T06:04:52.163Z,18.62
2023-02-09T06:07:18.828Z,18.61
2023-02-09T06:09:45.407Z,18.61
2023-02-09T06:12:14.485Z,18.61
2023-02-09T06:14:40.992Z,18.36
2023-02-09T06:17:07.619Z,18.60
2023-02-09T06:19:34.200Z,18.59
2023-02-09T06:22:00.939Z,18.60
2023-02-09T06:24:27.583Z,18.54
2023-02-09T06:26:56.800Z,18.41
2023-02-09T06:29:23.449Z,18.47
2023-02-09T06:31:50.317Z,18.60
2023-02-09T06:36:42.069Z,18.19
2023-02-09T06:39:10.167Z,18.61
2023-02-09T06:41:37.192Z,18.22
2023-02-09T06:44:04.344Z,18.62
2023-02-09T06:46:31.051Z,18.44
2023-02-09T06:48:59.554Z,18.64
2023-02-09T06:51:26.684Z,18.64
2023-02-09T06:53:54.778Z,18.65
2023-02-09T06:56:21.550Z,18.38
2023-02-09T06:58:48.270Z,18.59
2023-02-09T07:01:18.562Z,18.54
2023-02-09T07:03:45.271Z,18.65
2023-02-09T07:06:16.676Z,18.64
2023-02-09T07:08:44.500Z,18.64
2023-02-09T07:11:13.923Z,18.29
2023-02-09T07:13:40.863Z,18.57
2023-02-09T07:16:09.221Z,18.62
2023-02-09T07:18:36.464Z,18.35
2023-02-09T07:21:06.773Z,18.63
2023-02-09T07:23:36.743Z,18.61
2023-02-09T07:26:10.397Z,18.15
2023-02-09T07:28:37.439Z,18.48
2023-02-09T07:31:10.305Z,18.53
2023-02-09T07:33:37.284Z,18.56
2023-02-09T07:36:06.164Z,18.50
2023-02-09T07:38:33.650Z,18.54
2023-02-09T07:43:22.088Z,18.57
2023-02-09T07:45:48.859Z,18.27
2023-02-09T07:48:15.413Z,18.25
2023-02-09T07:50:48.941Z,18.52
2023-02-09T07:53:15.652Z,18.26
2023-02-09T07:55:42.230Z,18.68
2023-02-09T07:58:08.858Z,18.46
2023-02-09T08:00:35.505Z,18.45
2023-02-09T08:03:04.493Z,18.37
2023-02-09T08:05:37.314Z,18.54
2023-02-09T08:08:04.103Z,18.73
2023-02-09T08:10:30.747Z,18.51
2023-02-09T08:12:59.790Z,18.76
2023-02-09T08:15:37.760Z,18.78
2023-02-09T08:20:35.006Z,18.75
2023-02-09T08:23:07.898Z,18.31
2023-02-09T08:25:35.996Z,18.85
2023-02-09T08:28:03.808Z,18.86
2023-02-09T08:30:30.541Z,18.88
2023-02-09T08:32:57.219Z,18.73
2023-02-09T08:35:23.866Z,18.91
2023-02-09T08:37:50.546Z,18.93
2023-02-09T08:40:17.218Z,18.89
2023-02-09T08:42:43.853Z,18.96
2023-02-09T08:45:10.799Z,18.52
2023-02-09T08:47:37.395Z,19.00
2023-02-09T08:50:04.285Z,18.71
2023-02-09T08:52:30.852Z,18.71
2023-02-09T08:54:57.628Z,19.03
2023-02-09T08:57:31.925Z,19.04
2023-02-09T09:00:05.810Z,18.87
2023-02-09T09:02:33.699Z,18.83
2023-02-09T09:05:00.335Z,18.84
2023-02-09T09:07:26.929Z,19.10
2023-02-09T09:09:56.487Z,19.05
2023-02-09T09:12:23.080Z,19.12
2023-02-09T09:14:49.689Z,19.13
2023-02-09T09:17:16.218Z,19.02
2023-02-09T09:19:43.071Z,19.07
2023-02-09T09:22:09.620Z,19.12
2023-02-09T09:24:40.570Z,19.18
2023-02-09T09:27:08.989Z,19.19
2023-02-09T09:29:36.104Z,19.20
2023-02-09T09:32:03.321Z,19.21
2023-02-09T09:34:30.053Z,19.23
2023-02-09T09:36:56.805Z,19.20
2023-02-09T09:39:24.381Z,19.26
2023-02-09T09:41:55.179Z,19.26
2023-02-09T09:44:32.874Z,19.28
2023-02-09T09:47:07.118Z,19.30
2023-02-09T09:49:37.942Z,19.18
2023-02-09T09:52:21.859Z,19.20
2023-02-09T09:54:48.698Z,19.08
2023-02-09T09:57:25.843Z,19.30
2023-02-09T09:59:54.276Z,19.31
2023-02-09T10:02:29.421Z,19.39
2023-02-09T10:05:22.615Z,19.41
2023-02-09T10:08:12.781Z,19.42
2023-02-09T10:11:04.759Z,19.44
2023-02-09T10:13:41.040Z,19.44
2023-02-09T10:16:38.012Z,19.46
2023-02-09T10:19:17.781Z,19.47
2023-02-09T10:21:44.794Z,19.41
2023-02-09T10:24:22.013Z,19.50
2023-02-09T10:27:05.578Z,19.50
2023-02-09T10:29:32.235Z,19.44
2023-02-09T10:32:14.927Z,19.55
2023-02-09T10:34:46.937Z,19.55
2023-02-09T10:37:23.959Z,19.52
2023-02-09T10:40:26.798Z,19.58
2023-02-09T10:42:57.593Z,19.60
2023-02-09T10:45:45.448Z,19.60
2023-02-09T10:48:12.183Z,19.61
2023-02-09T10:50:59.878Z,19.53
2023-02-09T10:53:35.002Z,19.64
2023-02-09T10:56:04.503Z,19.65
2023-02-09T10:58:34.166Z,19.65
2023-02-09T11:01:09.888Z,19.66
2023-02-09T11:03:46.257Z,19.66
2023-02-09T11:06:19.464Z,19.68
2023-02-09T11:08:52.477Z,19.49
2023-02-09T11:13:40.747Z,19.69
2023-02-09T11:16:40.348Z,19.53
2023-02-09T11:19:25.981Z,19.70
2023-02-09T11:22:28.940Z,19.70
2023-02-09T11:25:01.962Z,19.70
2023-02-09T11:27:38.871Z,19.66
2023-02-09T11:30:46.513Z,19.71
2023-02-09T11:33:31.074Z,19.71
2023-02-09T11:36:10.992Z,19.74
2023-02-09T11:38:51.575Z,19.76
2023-02-09T11:41:47.090Z,19.70
2023-02-09T11:44:56.150Z,19.78
2023-02-09T11:47:30.943Z,19.68
2023-02-09T11:50:01.960Z,19.77
2023-02-09T11:52:35.765Z,19.77
2023-02-09T11:55:18.433Z,19.86
2023-02-09T11:57:48.763Z,19.87
2023-02-09T12:00:19.953Z,19.85
2023-02-09T12:02:53.543Z,19.89
2023-02-09T12:05:22.579Z,19.92
2023-02-09T12:08:22.398Z,19.94
2023-02-09T12:11:23.567Z,19.93
2023-02-09T12:13:52.965Z,19.96
2023-02-09T12:16:26.718Z,19.95
2023-02-09T12:18:55.364Z,20.00
2023-02-09T12:21:32.368Z,19.99
2023-02-09T12:24:00.737Z,20.03
2023-02-09T12:26:40.528Z,20.04
2023-02-09T12:29:30.254Z,20.05
2023-02-09T12:32:08.597Z,20.07
2023-02-09T12:34:35.309Z,20.07
2023-02-09T12:37:13.781Z,20.09
2023-02-09T12:40:10.077Z,20.10
2023-02-09T12:42:45.112Z,20.09
2023-02-09T12:45:33.547Z,20.13
2023-02-09T12:48:09.491Z,20.14
2023-02-09T12:50:42.199Z,20.16
2023-02-09T12:53:33.258Z,20.11
2023-02-09T12:56:04.449Z,20.18
2023-02-09T12:58:43.609Z,20.20
2023-02-09T13:01:11.800Z,20.21
2023-02-09T13:03:56.303Z,20.22
2023-02-09T13:06:48.910Z,20.24
2023-02-09T13:09:42.728Z,20.24
2023-02-09T13:12:20.038Z,20.26
2023-02-09T13:14:50.213Z,20.28
2023-02-09T13:18:06.730Z,20.28
2023-02-09T13:21:20.826Z,20.29
2023-02-09T13:24:08.716Z,20.12
2023-02-09T13:29:21.504Z,20.30
2023-02-09T13:31:56.329Z,20.29
2023-02-09T13:34:55.146Z,20.31
2023-02-09T13:37:40.032Z,20.31
2023-02-09T13:40:18.031Z,20.30
2023-02-09T13:43:12.954Z,20.32
2023-02-09T13:45:52.508Z,20.30
2023-02-09T13:48:29.963Z,20.31
2023-02-09T13:51:00.118Z,20.30
2023-02-09T13:53:28.826Z,20.31
2023-02-09T13:56:00.324Z,20.32
2023-02-09T13:58:38.620Z,20.28
2023-02-09T14:01:09.097Z,20.33
2023-02-09T14:03:56.721Z,20.33
2023-02-09T14:06:45.268Z,20.33
2023-02-09T14:09:19.991Z,20.33
2023-02-09T14:12:03.284Z,20.33
2023-02-09T14:14:57.912Z,20.33
2023-02-09T14:17:38.712Z,20.33
2023-02-09T14:20:20.431Z,20.33
2023-02-09T14:22:56.123Z,20.06
2023-02-09T14:25:24.792Z,20.28
2023-02-09T14:27:51.510Z,20.33
2023-02-09T14:30:23.191Z,20.33
2023-02-09T14:32:58.560Z,20.33
2023-02-09T14:35:29.185Z,20.32
2023-02-09T14:38:02.388Z,20.32
2023-02-09T14:43:04.096Z,20.30
2023-02-09T14:45:46.444Z,20.29
2023-02-09T14:48:16.423Z,20.30
2023-02-09T14:50:43.056Z,20.30
2023-02-09T14:53:13.864Z,20.29
2023-02-09T14:55:40.668Z,20.29
2023-02-09T14:58:12.683Z,20.16
2023-02-09T15:00:39.283Z,20.28
2023-02-09T15:03:05.942Z,20.27
2023-02-09T15:05:32.625Z,19.83
2023-02-09T15:08:05.752Z,20.17
2023-02-09T15:10:35.349Z,20.26
2023-02-09T15:13:05.128Z,20.26
2023-02-09T15:15:33.319Z,20.11
2023-02-09T15:18:00.509Z,20.20
2023-02-09T15:20:28.473Z,20.12
2023-02-09T15:22:55.575Z,20.18
2023-02-09T15:25:24.197Z,20.22
2023-02-09T15:27:56.060Z,20.23
2023-02-09T15:30:36.022Z,20.12
2023-02-09T15:33:02.749Z,20.21
2023-02-09T15:35:29.840Z,20.06
2023-02-09T15:37:59.614Z,20.18
2023-02-09T15:40:45.017Z,20.17
2023-02-09T15:43:36.069Z,20.16
2023-02-09T15:46:21.501Z,20.13
2023-02-09T15:48:48.376Z,20.12
2023-02-09T15:51:15.735Z,19.96
2023-02-09T15:53:42.965Z,19.95
2023-02-09T15:56:11.598Z,20.03
2023-02-09T15:58:41.710Z,20.10
2023-02-09T16:01:12.970Z,20.07
2023-02-09T16:03:39.846Z,19.71
2023-02-09T16:06:26.897Z,20.08
2023-02-09T16:08:53.972Z,20.06
2023-02-09T16:11:24.692Z,20.07
2023-02-09T16:13:51.327Z,20.05
2023-02-09T16:16:18.143Z,20.06
2023-02-09T16:18:46.430Z,20.05
2023-02-09T16:21:28.032Z,20.05
2023-02-09T16:23:57.118Z,20.04
2023-02-09T16:26:24.799Z,20.04
2023-02-09T16:28:53.749Z,20.04
2023-02-09T16:31:23.930Z,20.04
2023-02-09T16:33:51.301Z,20.03
2023-02-09T16:36:20.974Z,20.04
2023-02-09T16:38:48.058Z,19.91
2023-02-09T16:41:35.680Z,20.03
2023-02-09T16:44:20.711Z,19.95
2023-02-09T16:46:49.569Z,19.97
2023-02-09T16:49:26.931Z,19.98
2023-02-09T16:51:56.569Z,20.01
2023-02-09T16:54:23.436Z,20.01
2023-02-09T16:56:54.654Z,19.89
2023-02-09T16:59:21.676Z,20.00
2023-02-09T17:01:48.823Z,19.99
2023-02-09T17:04:15.587Z,19.99
2023-02-09T17:06:42.313Z,19.82
2023-02-09T17:09:17.855Z,19.98
2023-02-09T17:11:44.542Z,19.98
2023-02-09T17:14:12.330Z,19.97
2023-02-09T17:16:43.257Z,19.96
2023-02-09T17:19:15.440Z,19.96
2023-02-09T17:21:42.365Z,19.83
2023-02-09T17:24:15.786Z,19.95
2023-02-09T17:26:43.062Z,19.95
2023-02-09T17:29:10.293Z,19.80
2023-02-09T17:31:52.753Z,19.94
2023-02-09T17:34:21.924Z,19.91
2023-02-09T17:36:48.539Z,19.94
2023-02-09T17:39:16.735Z,19.94
2023-02-09T17:41:45.224Z,19.88
2023-02-09T17:44:31.616Z,19.95
2023-02-09T17:47:04.362Z,19.95
2023-02-09T17:49:32.094Z,19.96
2023-02-09T17:51:58.748Z,19.97
2023-02-09T17:54:27.707Z,19.97
2023-02-09T17:56:57.399Z,19.98
2023-02-09T17:59:23.962Z,19.99
2023-02-09T18:01:50.988Z,19.99
2023-02-09T18:04:20.385Z,19.98
2023-02-09T18:06:47.119Z,19.98
2023-02-09T18:09:14.737Z,19.98
2023-02-09T18:11:56.904Z,19.94
2023-02-09T18:14:24.537Z,19.86
2023-02-09T18:16:52.037Z,19.95
2023-02-09T18:19:18.717Z,19.95
2023-02-09T18:21:55.778Z,19.93
2023-02-09T18:24:24.643Z,19.92
2023-02-09T18:26:51.305Z,19.87
2023-02-09T18:29:20.150Z,19.81
2023-02-09T18:31:47.036Z,19.85
2023-02-09T18:34:17.419Z,19.78
2023-02-09T18:36:44.035Z,19.76
2023-02-09T18:39:10.678Z,19.70
2023-02-09T18:41:37.439Z,19.78
2023-02-09T18:44:04.090Z,19.73
2023-02-09T18:46:31.055Z,19.65
2023-02-09T18:48:57.664Z,19.62
2023-02-09T18:51:25.065Z,19.66
2023-02-09T18:56:22.856Z,19.68
2023-02-09T18:58:50.374Z,19.68
2023-02-09T19:01:20.171Z,19.64
2023-02-09T19:03:50.272Z,19.64
2023-02-09T19:06:17.543Z,19.55
2023-02-09T19:08:44.140Z,19.35
2023-02-09T19:11:15.764Z,19.58
2023-02-09T19:13:42.451Z,19.57
2023-02-09T19:16:13.469Z,19.55
2023-02-09T19:18:40.705Z,19.54
2023-02-09T19:21:07.905Z,19.46
2023-02-09T19:23:35.526Z,19.39
2023-02-09T19:26:05.885Z,19.48
2023-02-09T19:28:32.643Z,19.59
2023-02-09T19:30:59.471Z,19.56
2023-02-09T19:33:26.361Z,19.54
2023-02-09T19:35:57.648Z,19.63
2023-02-09T19:38:25.684Z,19.54
2023-02-09T19:41:08.573Z,19.65
2023-02-09T19:43:39.451Z,19.55
2023-02-09T19:46:06.709Z,19.67
2023-02-09T19:48:33.447Z,19.69
2023-02-09T19:51:00.496Z,19.68
2023-02-09T19:53:27.455Z,19.69
2023-02-09T19:55:54.654Z,19.59
2023-02-09T19:58:21.929Z,19.64
2023-02-09T20:00:50.052Z,19.55
2023-02-09T20:03:17.793Z,19.72
2023-02-09T20:05:45.346Z,19.72
2023-02-09T20:08:15.586Z,19.65
2023-02-09T20:10:44.011Z,19.72
2023-02-09T20:13:13.000Z,19.67
2023-02-09T20:15:43.924Z,19.73
2023-02-09T20:18:13.609Z,19.68
2023-02-09T20:20:43.106Z,19.74
2023-02-09T20:23:10.407Z,19.75
2023-02-09T20:25:42.950Z,19.68
2023-02-09T20:28:13.548Z,19.73
2023-02-09T20:30:42.088Z,19.60
2023-02-09T20:33:10.181Z,19.71
2023-02-09T20:35:40.882Z,19.68
2023-02-09T20:38:08.330Z,19.65
2023-02-09T20:40:35.499Z,19.65
2023-02-09T20:43:20.919Z,19.62
2023-02-09T20:46:06.099Z,19.60
2023-02-09T20:48:32.771Z,19.57
2023-02-09T20:50:59.446Z,19.45
2023-02-09T20:53:26.688Z,19.46
2023-02-09T20:55:53.731Z,19.31
2023-02-09T20:58:20.771Z,19.43
2023-02-09T21:00:48.030Z,19.38
2023-02-09T21:03:18.129Z,19.47
2023-02-09T21:05:44.916Z,19.37
2023-02-09T21:08:11.506Z,19.44
2023-02-09T21:10:39.178Z,19.38
2023-02-09T21:13:07.193Z,19.37
2023-02-09T21:15:39.012Z,19.43
2023-02-09T21:18:06.811Z,19.44
2023-02-09T21:20:36.962Z,19.45
2023-02-09T21:23:05.753Z,19.24
2023-02-09T21:25:32.553Z,19.41
2023-02-09T21:27:59.727Z,19.47
2023-02-09T21:30:27.162Z,19.41
2023-02-09T21:32:55.938Z,19.31
2023-02-09T21:35:22.888Z,19.49
2023-02-09T21:37:49.863Z,19.48
2023-02-09T21:40:16.627Z,19.53
2023-02-09T21:42:43.607Z,19.35
2023-02-09T21:45:10.183Z,19.54
2023-02-09T21:47:38.685Z,19.35
2023-02-09T21:50:08.886Z,19.49
2023-02-09T21:52:38.155Z,19.52
2023-02-09T21:55:06.179Z,19.41
2023-02-09T21:57:32.861Z,19.14
2023-02-09T22:00:05.361Z,19.55
2023-02-09T22:02:34.574Z,19.50
2023-02-09T22:05:01.905Z,19.39
2023-02-09T22:07:30.302Z,19.52
2023-02-09T22:09:58.214Z,19.53
2023-02-09T22:12:36.189Z,19.54
2023-02-09T22:15:09.844Z,19.35
2023-02-09T22:17:37.559Z,19.53
2023-02-09T22:20:04.857Z,19.18
2023-02-09T22:22:31.580Z,19.53
2023-02-09T22:24:59.040Z,19.52
2023-02-09T22:27:26.494Z,19.53
2023-02-09T22:29:53.075Z,18.97
2023-02-09T22:32:20.447Z,19.39
2023-02-09T22:34:47.027Z,19.52
2023-02-09T22:37:13.766Z,19.42
2023-02-09T22:41:57.982Z,19.44
2023-02-09T22:44:26.636Z,19.50
2023-02-09T22:46:53.572Z,19.38
2023-02-09T22:49:21.048Z,19.49
2023-02-09T22:51:49.634Z,19.50
2023-02-09T22:54:18.113Z,19.48
2023-02-09T22:56:44.757Z,19.48
2023-02-09T22:59:13.200Z,19.47
2023-02-09T23:01:40.103Z,19.47
2023-02-09T23:04:06.902Z,19.46
2023-02-09T23:06:35.217Z,19.46
2023-02-09T23:09:05.564Z,19.46
2023-02-09T23:11:32.519Z,19.45
2023-02-09T23:14:09.206Z,19.45
2023-02-09T23:16:38.428Z,19.37
2023-02-09T23:19:07.604Z,19.28
2023-02-09T23:21:37.459Z,19.43
2023-02-09T23:24:05.027Z,19.43
2023-02-09T23:26:33.255Z,19.03
2023-02-09T23:29:02.546Z,19.42
2023-02-09T23:31:29.660Z,19.24
2023-02-09T23:33:56.549Z,19.28
2023-02-09T23:36:26.102Z,19.40
2023-02-09T23:38:54.731Z,19.23
2023-02-09T23:41:22.226Z,19.26
2023-02-09T23:43:49.373Z,19.40
2023-02-09T23:46:18.938Z,19.39
2023-02-09T23:48:46.036Z,19.40
2023-02-09T23:51:15.603Z,19.28
2023-02-09T23:53:42.168Z,19.38
2023-02-09T23:56:08.775Z,19.38
2023-02-09T23:58:41.248Z,19.08
